createdAt,value
2018-08-20T00:00:34.589Z,13.90
2018-08-20T00:02:37.396Z,12.00
2018-08-20T00:04:45.295Z,13.10
2018-08-20T00:06:53.074Z,12.43
2018-08-20T00:08:55.390Z,16.60
2018-08-20T00:10:57.887Z,16.50
2018-08-20T00:13:00.088Z,13.57
2018-08-20T00:15:02.291Z,16.97
2018-08-20T00:17:04.534Z,13.70
2018-08-20T00:19:10.986Z,14.10
2018-08-20T00:21:13.151Z,12.70
2018-08-20T00:23:15.314Z,11.77
2018-08-20T00:25:18.686Z,13.57
2018-08-20T00:27:21.147Z,14.20
2018-08-20T00:29:23.336Z,17.20
2018-08-20T00:31:25.485Z,13.10
2018-08-20T00:33:27.615Z,11.57
2018-08-20T00:35:29.870Z,14.27
2018-08-20T00:37:32.106Z,17.83
2018-08-20T00:39:34.286Z,15.20
2018-08-20T00:41:36.435Z,12.70
2018-08-20T00:43:38.579Z,20.97
2018-08-20T00:45:41.429Z,15.40
2018-08-20T00:47:43.574Z,13.87
2018-08-20T00:49:45.709Z,14.93
2018-08-20T00:51:47.866Z,18.53
2018-08-20T00:53:50.011Z,13.67
2018-08-20T00:55:52.178Z,18.03
2018-08-20T00:57:54.422Z,13.70
2018-08-20T00:59:56.559Z,13.67
2018-08-20T01:01:58.727Z,13.80
2018-08-20T01:04:01.557Z,14.57
2018-08-20T01:06:03.730Z,19.40
2018-08-20T01:08:05.954Z,12.53
2018-08-20T01:10:08.173Z,11.93
2018-08-20T01:12:10.345Z,14.73
2018-08-20T01:14:12.474Z,14.40
2018-08-20T01:16:14.658Z,12.13
2018-08-20T01:18:23.539Z,22.27
2018-08-20T01:20:25.698Z,13.23
2018-08-20T01:22:27.845Z,15.73
2018-08-20T01:24:30.026Z,12.77
2018-08-20T01:26:32.190Z,14.83
2018-08-20T01:28:34.315Z,13.20
2018-08-20T01:30:36.424Z,15.90
2018-08-20T01:32:38.562Z,15.67
2018-08-20T01:34:40.720Z,13.67
2018-08-20T01:36:42.978Z,12.53
2018-08-20T01:38:45.813Z,13.57
2018-08-20T01:40:47.974Z,16.50
2018-08-20T01:42:50.141Z,16.57
2018-08-20T01:44:52.311Z,15.20
2018-08-20T01:46:54.488Z,15.80
2018-08-20T01:48:56.654Z,13.60
2018-08-20T01:50:58.786Z,13.03
2018-08-20T01:53:00.954Z,15.23
2018-08-20T01:55:03.320Z,15.30
2018-08-20T01:57:06.333Z,13.27
2018-08-20T01:59:08.527Z,18.23
2018-08-20T02:01:10.694Z,14.00
2018-08-20T02:03:13.230Z,17.93
2018-08-20T02:05:15.530Z,12.50
2018-08-20T02:07:17.776Z,18.60
2018-08-20T02:09:20.016Z,15.20
2018-08-20T02:11:22.194Z,12.87
2018-08-20T02:13:24.570Z,16.77
2018-08-20T02:15:26.738Z,14.40
2018-08-20T02:17:28.921Z,16.07
2018-08-20T02:19:31.057Z,14.03
2018-08-20T02:21:33.215Z,13.63
2018-08-20T02:23:35.395Z,12.30
2018-08-20T02:25:37.590Z,13.97
2018-08-20T02:27:39.815Z,14.43
2018-08-20T02:29:42.031Z,14.83
2018-08-20T02:31:44.183Z,11.77
2018-08-20T02:33:46.354Z,15.90
2018-08-20T02:35:48.626Z,15.70
2018-08-20T02:37:50.786Z,15.20
2018-08-20T02:39:52.944Z,18.27
2018-08-20T02:41:55.462Z,13.47
2018-08-20T02:43:57.610Z,12.23
2018-08-20T02:45:59.779Z,13.33
2018-08-20T02:48:01.936Z,15.07
2018-08-20T02:50:04.100Z,11.27
2018-08-20T02:52:06.290Z,12.57
2018-08-20T02:54:08.899Z,13.90
2018-08-20T02:56:11.082Z,13.23
2018-08-20T02:58:13.400Z,14.53
2018-08-20T03:00:15.594Z,11.90
2018-08-20T03:02:17.745Z,10.27
2018-08-20T03:04:19.878Z,14.70
2018-08-20T03:06:22.038Z,12.17
2018-08-20T03:08:24.243Z,13.90
2018-08-20T03:10:26.419Z,12.20
2018-08-20T03:12:28.636Z,16.00
2018-08-20T03:14:30.746Z,11.00
2018-08-20T03:16:33.285Z,13.33
2018-08-20T03:18:35.436Z,12.33
2018-08-20T03:20:37.600Z,13.40
2018-08-20T03:22:39.755Z,13.77
2018-08-20T03:24:41.978Z,13.40
2018-08-20T03:26:44.153Z,15.47
2018-08-20T03:28:46.336Z,18.33
2018-08-20T03:30:48.512Z,19.10
2018-08-20T03:32:50.648Z,14.47
2018-08-20T03:34:52.798Z,12.83
2018-08-20T03:36:55.015Z,18.60
2018-08-20T03:38:57.200Z,16.73
2018-08-20T03:40:59.370Z,15.47
2018-08-20T03:43:01.568Z,12.80
2018-08-20T03:45:04.962Z,14.57
2018-08-20T03:47:07.168Z,18.60
2018-08-20T03:49:09.362Z,13.90
2018-08-20T03:51:11.478Z,14.00
2018-08-20T03:53:13.631Z,17.03
2018-08-20T03:55:15.773Z,14.37
2018-08-20T03:57:17.890Z,21.03
2018-08-20T03:59:31.490Z,19.87
2018-08-20T04:01:33.642Z,18.43
2018-08-20T04:03:35.850Z,14.67
2018-08-20T04:05:38.038Z,20.80
2018-08-20T04:07:40.235Z,18.60
2018-08-20T04:09:42.750Z,16.10
2018-08-20T04:11:44.909Z,15.37
2018-08-20T04:13:47.071Z,16.63
2018-08-20T04:15:49.285Z,20.03
2018-08-20T04:17:51.417Z,17.93
2018-08-20T04:19:53.578Z,18.97
2018-08-20T04:21:55.818Z,20.10
2018-08-20T04:23:57.948Z,17.60
2018-08-20T04:26:00.094Z,21.17
2018-08-20T04:28:02.382Z,18.40
2018-08-20T04:30:04.817Z,18.17
2018-08-20T04:32:07.039Z,19.20
2018-08-20T04:34:09.230Z,21.90
2018-08-20T04:36:11.372Z,17.90
2018-08-20T04:38:13.555Z,17.50
2018-08-20T04:40:15.737Z,14.63
2018-08-20T04:42:18.050Z,17.27
2018-08-20T04:44:20.110Z,16.67
2018-08-20T04:46:22.310Z,17.00
2018-08-20T04:48:24.428Z,18.67
2018-08-20T04:50:27.234Z,23.07
2018-08-20T04:52:29.262Z,16.30
2018-08-20T04:54:31.420Z,18.47
2018-08-20T04:56:33.614Z,17.77
2018-08-20T04:58:35.766Z,15.87
2018-08-20T05:00:37.894Z,15.40
2018-08-20T05:02:40.039Z,14.93
2018-08-20T05:04:42.204Z,14.77
2018-08-20T05:06:44.369Z,17.27
2018-08-20T05:08:46.643Z,19.03
2018-08-20T05:10:48.799Z,13.70
2018-08-20T05:12:50.949Z,15.43
2018-08-20T05:14:53.102Z,14.27
2018-08-20T05:16:55.238Z,14.77
2018-08-20T05:18:57.442Z,14.17
2018-08-20T05:20:59.696Z,17.20
2018-08-20T05:23:01.878Z,15.50
2018-08-20T05:25:04.413Z,17.20
2018-08-20T05:27:06.662Z,15.47
2018-08-20T05:29:08.862Z,14.03
2018-08-20T05:31:11.103Z,19.73
2018-08-20T05:33:13.275Z,15.40
2018-08-20T05:35:15.449Z,12.17
2018-08-20T05:37:17.610Z,16.10
2018-08-20T05:39:19.798Z,15.13
2018-08-20T05:41:21.978Z,17.13
2018-08-20T05:43:24.109Z,15.43
2018-08-20T05:45:26.256Z,11.47
2018-08-20T05:47:28.374Z,6.97
2018-08-20T05:49:30.466Z,7.50
2018-08-20T05:51:32.691Z,6.53
2018-08-20T05:53:34.862Z,6.90
2018-08-20T05:55:37.046Z,8.50
2018-08-20T05:57:39.211Z,7.07
2018-08-20T05:59:41.359Z,6.70
2018-08-20T06:01:43.505Z,7.37
2018-08-20T06:03:45.760Z,6.60
2018-08-20T06:05:48.005Z,5.10
2018-08-20T06:07:50.178Z,5.83
2018-08-20T06:09:52.309Z,9.43
2018-08-20T06:11:54.433Z,8.30
2018-08-20T06:13:56.601Z,7.60
2018-08-20T06:15:58.744Z,5.97
2018-08-20T06:18:00.928Z,5.23
2018-08-20T06:20:03.143Z,7.27
2018-08-20T06:22:05.332Z,4.93
2018-08-20T06:24:07.507Z,9.23
2018-08-20T06:26:09.917Z,8.60
2018-08-20T06:28:12.047Z,6.50
2018-08-20T06:30:16.470Z,7.77
2018-08-20T06:32:18.698Z,5.53
2018-08-20T06:34:20.906Z,6.77
2018-08-20T06:36:23.028Z,7.80
2018-08-20T06:38:25.155Z,6.30
2018-08-20T06:40:27.647Z,6.80
2018-08-20T06:42:29.768Z,6.10
2018-08-20T06:44:31.879Z,7.77
2018-08-20T06:46:34.142Z,5.90
2018-08-20T06:48:36.310Z,6.97
2018-08-20T06:50:38.448Z,7.50
2018-08-20T06:52:42.150Z,8.73
2018-08-20T06:54:44.284Z,9.83
2018-08-20T06:56:46.458Z,6.87
2018-08-20T06:58:48.629Z,7.77
2018-08-20T07:00:55.606Z,8.67
2018-08-20T07:02:57.848Z,10.93
2018-08-20T07:04:59.966Z,8.23
2018-08-20T07:07:02.444Z,8.53
2018-08-20T07:09:05.147Z,10.23
2018-08-20T07:11:07.327Z,8.47
2018-08-20T07:13:19.862Z,9.70
2018-08-20T07:15:22.023Z,9.20
2018-08-20T07:17:24.291Z,8.10
2018-08-20T07:19:26.997Z,8.20
2018-08-20T07:21:29.450Z,10.13
2018-08-20T07:23:31.675Z,7.30
2018-08-20T07:25:33.801Z,6.40
2018-08-20T07:27:36.739Z,8.80
2018-08-20T07:29:40.546Z,7.00
2018-08-20T07:31:42.702Z,6.67
2018-08-20T07:33:45.184Z,8.27
2018-08-20T07:35:47.409Z,7.40
2018-08-20T07:37:49.546Z,6.67
2018-08-20T07:39:51.897Z,8.50
2018-08-20T07:41:54.055Z,6.30
2018-08-20T07:43:56.228Z,6.27
2018-08-20T07:45:58.443Z,6.97
2018-08-20T07:48:00.606Z,8.80
2018-08-20T07:50:02.771Z,9.43
2018-08-20T07:52:05.614Z,6.67
2018-08-20T07:54:07.896Z,9.67
2018-08-20T07:56:10.042Z,7.60
2018-08-20T07:58:12.207Z,7.10
2018-08-20T08:00:14.706Z,7.00
2018-08-20T08:02:16.894Z,7.80
2018-08-20T08:04:19.034Z,9.77
2018-08-20T08:06:21.214Z,11.57
2018-08-20T08:08:23.538Z,10.27
2018-08-20T08:10:25.740Z,5.73
2018-08-20T08:12:27.965Z,4.03
2018-08-20T08:14:30.288Z,3.60
2018-08-20T08:16:32.546Z,4.40
2018-08-20T08:18:34.714Z,3.63
2018-08-20T08:20:36.989Z,3.20
2018-08-20T08:22:39.841Z,2.67
2018-08-20T08:24:42.036Z,4.23
2018-08-20T08:26:44.424Z,2.87
2018-08-20T08:28:46.558Z,3.90
2018-08-20T08:30:48.786Z,4.47
2018-08-20T08:32:57.759Z,2.93
2018-08-20T08:34:59.935Z,5.83
2018-08-20T08:37:02.234Z,2.73
2018-08-20T08:39:07.599Z,2.97
2018-08-20T08:41:09.729Z,13.73
2018-08-20T08:43:12.039Z,2.53
2018-08-20T08:45:16.303Z,6.63
2018-08-20T08:47:18.509Z,17.53
2018-08-20T08:49:20.681Z,5.03
2018-08-20T08:51:22.894Z,2.23
2018-08-20T08:53:25.214Z,2.40
2018-08-20T08:55:27.386Z,2.47
2018-08-20T08:57:29.514Z,4.50
2018-08-20T08:59:32.398Z,2.27
2018-08-20T09:01:34.642Z,2.60
2018-08-20T09:03:36.828Z,2.57
2018-08-20T09:05:39.050Z,2.67
2018-08-20T09:07:42.527Z,2.40
2018-08-20T09:09:44.802Z,2.97
2018-08-20T09:11:47.007Z,3.80
2018-08-20T09:13:49.197Z,4.33
2018-08-20T09:15:51.334Z,3.37
2018-08-20T09:17:53.544Z,3.23
2018-08-20T09:19:55.694Z,4.27
2018-08-20T09:21:57.929Z,2.83
2018-08-20T09:24:00.155Z,4.33
2018-08-20T09:26:02.291Z,4.53
2018-08-20T09:28:04.450Z,3.63
2018-08-20T09:30:15.027Z,3.60
2018-08-20T09:32:17.194Z,2.90
2018-08-20T09:34:19.314Z,4.77
2018-08-20T09:36:21.494Z,4.67
2018-08-20T09:38:23.655Z,3.00
2018-08-20T09:40:25.809Z,3.00
2018-08-20T09:42:28.026Z,3.13
2018-08-20T09:44:30.152Z,4.30
2018-08-20T09:46:32.744Z,3.20
2018-08-20T09:48:34.907Z,3.07
2018-08-20T09:50:37.033Z,2.50
2018-08-20T09:52:39.227Z,4.53
2018-08-20T09:54:41.350Z,4.43
2018-08-20T09:56:43.535Z,2.50
2018-08-20T09:58:45.697Z,3.27
2018-08-20T10:00:47.883Z,3.67
2018-08-20T10:02:50.937Z,3.03
2018-08-20T10:04:53.078Z,6.07
2018-08-20T10:06:55.403Z,4.03
2018-08-20T10:08:57.615Z,2.50
2018-08-20T10:11:00.518Z,4.83
2018-08-20T10:13:02.803Z,3.13
2018-08-20T10:15:04.988Z,4.30
2018-08-20T10:17:08.046Z,2.90
2018-08-20T10:19:11.043Z,3.40
2018-08-20T10:21:13.176Z,3.77
2018-08-20T10:23:15.339Z,4.27
2018-08-20T10:25:17.510Z,4.97
2018-08-20T10:27:19.681Z,2.10
2018-08-20T10:29:21.824Z,1.80
2018-08-20T10:31:24.002Z,5.00
2018-08-20T10:33:26.175Z,3.60
2018-08-20T10:35:28.342Z,2.20
2018-08-20T10:37:32.004Z,1.97
2018-08-20T10:39:34.088Z,2.43
2018-08-20T10:41:36.495Z,1.80
2018-08-20T10:43:38.695Z,2.07
2018-08-20T10:45:46.635Z,1.73
2018-08-20T10:47:49.258Z,2.53
2018-08-20T10:49:51.434Z,1.60
2018-08-20T10:51:53.623Z,1.57
2018-08-20T10:53:55.846Z,2.10
2018-08-20T10:55:58.003Z,2.30
2018-08-20T10:58:00.231Z,2.07
2018-08-20T11:00:02.454Z,2.27
2018-08-20T11:02:04.757Z,2.80
2018-08-20T11:04:06.866Z,2.20
2018-08-20T11:06:09.076Z,2.63
2018-08-20T11:08:11.241Z,3.50
2018-08-20T11:10:13.586Z,7.10
2018-08-20T11:12:16.394Z,3.07
2018-08-20T11:14:18.524Z,2.20
2018-08-20T11:16:20.691Z,4.50
2018-08-20T11:18:22.891Z,2.20
2018-08-20T11:20:24.979Z,4.13
2018-08-20T11:22:27.148Z,3.57
2018-08-20T11:24:29.301Z,3.80
2018-08-20T11:26:31.476Z,3.70
2018-08-20T11:28:33.714Z,2.90
2018-08-20T11:30:35.889Z,3.00
2018-08-20T11:32:38.092Z,2.63
2018-08-20T11:34:40.253Z,3.13
2018-08-20T11:36:43.552Z,2.13
2018-08-20T11:38:45.615Z,3.60
2018-08-20T11:40:47.757Z,2.97
2018-08-20T11:42:49.942Z,2.93
2018-08-20T11:44:52.142Z,3.47
2018-08-20T11:46:54.352Z,4.07
2018-08-20T11:48:56.539Z,5.20
2018-08-20T11:50:58.709Z,3.20
2018-08-20T11:53:00.866Z,3.83
2018-08-20T11:55:03.143Z,3.23
2018-08-20T11:57:05.427Z,3.87
2018-08-20T11:59:07.611Z,4.10
2018-08-20T12:01:09.686Z,2.40
2018-08-20T12:03:11.846Z,2.30
2018-08-20T12:05:14.015Z,3.10
2018-08-20T12:07:16.195Z,4.10
2018-08-20T12:09:18.365Z,2.73
2018-08-20T12:11:20.515Z,2.40
2018-08-20T12:13:22.858Z,2.77
2018-08-20T12:15:25.296Z,2.97
2018-08-20T12:17:27.487Z,3.20
2018-08-20T12:19:29.637Z,2.40
2018-08-20T12:21:31.790Z,4.33
2018-08-20T12:23:33.927Z,2.40
2018-08-20T12:25:36.098Z,2.07
2018-08-20T12:27:38.343Z,3.93
2018-08-20T12:29:40.664Z,3.70
2018-08-20T12:31:42.879Z,3.10
2018-08-20T12:33:45.178Z,6.53
2018-08-20T12:35:47.344Z,4.53
2018-08-20T12:37:49.514Z,3.70
2018-08-20T12:39:51.745Z,2.83
2018-08-20T12:41:53.866Z,3.80
2018-08-20T12:43:56.053Z,2.87
2018-08-20T12:45:58.267Z,3.70
2018-08-20T12:48:00.462Z,5.47
2018-08-20T12:50:02.723Z,2.70
2018-08-20T12:52:05.708Z,2.20
2018-08-20T12:54:07.863Z,4.90
2018-08-20T12:56:10.374Z,3.07
2018-08-20T12:58:12.606Z,2.80
2018-08-20T13:00:14.800Z,4.50
2018-08-20T13:02:16.982Z,5.80
2018-08-20T13:04:19.369Z,4.30
2018-08-20T13:06:21.541Z,3.47
2018-08-20T13:08:23.755Z,5.47
2018-08-20T13:10:25.906Z,4.53
2018-08-20T13:12:28.022Z,2.57
2018-08-20T13:14:30.147Z,8.03
2018-08-20T13:16:32.471Z,2.90
2018-08-20T13:18:34.632Z,3.77
2018-08-20T13:20:36.753Z,3.60
2018-08-20T13:22:38.890Z,5.20
2018-08-20T13:24:41.014Z,4.20
2018-08-20T13:26:44.077Z,4.23
2018-08-20T13:28:53.117Z,4.63
2018-08-20T13:30:55.270Z,3.40
2018-08-20T13:32:57.453Z,5.00
2018-08-20T13:34:59.657Z,3.67
2018-08-20T13:37:01.878Z,3.30
2018-08-20T13:39:05.766Z,3.97
2018-08-20T13:41:08.306Z,2.40
2018-08-20T13:43:11.119Z,3.37
2018-08-20T13:45:13.308Z,3.60
2018-08-20T13:47:15.603Z,2.33
2018-08-20T13:49:17.752Z,2.90
2018-08-20T13:51:20.010Z,3.17
2018-08-20T13:53:22.168Z,4.50
2018-08-20T13:55:24.376Z,2.43
2018-08-20T13:57:29.641Z,3.70
2018-08-20T13:59:31.809Z,3.10
2018-08-20T14:01:33.970Z,3.17
2018-08-20T14:03:36.115Z,3.43
2018-08-20T14:05:38.315Z,3.20
2018-08-20T14:07:40.596Z,3.03
2018-08-20T14:09:42.810Z,1.73
2018-08-20T14:11:44.973Z,2.17
2018-08-20T14:13:47.138Z,4.13
2018-08-20T14:15:49.289Z,2.30
2018-08-20T14:17:51.413Z,2.17
2018-08-20T14:19:53.566Z,4.33
2018-08-20T14:21:55.743Z,4.23
2018-08-20T14:23:57.926Z,3.00
2018-08-20T14:26:00.066Z,3.07
2018-08-20T14:28:02.221Z,3.40
2018-08-20T14:30:07.658Z,4.90
2018-08-20T14:32:09.805Z,4.90
2018-08-20T14:34:11.968Z,3.10
2018-08-20T14:36:14.123Z,4.27
2018-08-20T14:38:16.284Z,3.00
2018-08-20T14:40:18.579Z,3.63
2018-08-20T14:42:20.727Z,3.57
2018-08-20T14:44:22.859Z,3.20
2018-08-20T14:46:25.014Z,2.93
2018-08-20T14:48:27.222Z,4.77
2018-08-20T14:50:29.362Z,3.20
2018-08-20T14:52:31.530Z,3.17
2018-08-20T14:54:33.736Z,5.50
2018-08-20T14:56:35.858Z,3.00
2018-08-20T14:58:38.077Z,2.63
2018-08-20T15:00:40.590Z,3.80
2018-08-20T15:02:42.830Z,3.80
2018-08-20T15:04:44.954Z,4.20
2018-08-20T15:06:58.832Z,3.63
2018-08-20T15:09:01.022Z,2.97
2018-08-20T15:11:03.181Z,4.00
2018-08-20T15:13:05.385Z,2.83
2018-08-20T15:15:07.988Z,2.83
2018-08-20T15:17:10.042Z,3.97
2018-08-20T15:19:12.229Z,4.50
2018-08-20T15:21:14.395Z,2.77
2018-08-20T15:23:16.569Z,2.63
2018-08-20T15:25:18.775Z,3.20
2018-08-20T15:27:20.972Z,5.00
2018-08-20T15:29:23.141Z,3.70
2018-08-20T15:31:25.290Z,4.03
2018-08-20T15:33:27.530Z,3.10
2018-08-20T15:35:29.690Z,3.20
2018-08-20T15:37:31.861Z,3.17
2018-08-20T15:39:34.045Z,7.37
2018-08-20T15:41:36.422Z,4.37
2018-08-20T15:43:38.754Z,5.80
2018-08-20T15:45:40.902Z,3.63
2018-08-20T15:47:43.129Z,4.03
2018-08-20T15:49:45.282Z,6.30
2018-08-20T15:51:47.425Z,7.33
2018-08-20T15:53:49.607Z,7.30
2018-08-20T15:55:51.714Z,4.30
2018-08-20T15:57:53.872Z,3.27
2018-08-20T15:59:56.082Z,2.53
2018-08-20T16:01:58.252Z,3.97
2018-08-20T16:04:00.723Z,3.23
2018-08-20T16:06:03.010Z,4.13
2018-08-20T16:08:05.358Z,4.17
2018-08-20T16:10:09.623Z,5.30
2018-08-20T16:12:11.870Z,5.33
2018-08-20T16:14:14.001Z,4.67
2018-08-20T16:16:16.149Z,5.03
2018-08-20T16:18:18.290Z,5.63
2018-08-20T16:20:20.513Z,3.40
2018-08-20T16:22:22.655Z,3.43
2018-08-20T16:24:24.837Z,8.07
2018-08-20T16:26:26.998Z,3.27
2018-08-20T16:28:29.324Z,5.87
2018-08-20T16:30:31.441Z,5.70
2018-08-20T16:32:33.571Z,6.07
2018-08-20T16:34:35.686Z,3.97
2018-08-20T16:36:37.844Z,2.90
2018-08-20T16:38:40.009Z,4.63
2018-08-20T16:40:42.188Z,4.20
2018-08-20T16:42:44.350Z,3.50
2018-08-20T16:44:46.507Z,4.07
2018-08-20T16:46:48.673Z,5.87
2018-08-20T16:48:51.860Z,4.77
2018-08-20T16:50:54.040Z,5.03
2018-08-20T16:52:56.163Z,7.03
2018-08-20T16:54:58.578Z,3.00
2018-08-20T16:57:00.871Z,4.50
2018-08-20T16:59:03.071Z,5.80
2018-08-20T17:01:11.648Z,4.23
2018-08-20T17:03:13.856Z,5.23
2018-08-20T17:05:16.052Z,3.93
2018-08-20T17:07:18.184Z,3.63
2018-08-20T17:09:20.350Z,6.60
2018-08-20T17:11:22.500Z,5.30
2018-08-20T17:13:24.642Z,7.13
2018-08-20T17:15:26.891Z,8.60
2018-08-20T17:17:29.051Z,6.00
2018-08-20T17:19:31.214Z,7.27
2018-08-20T17:21:33.393Z,3.90
2018-08-20T17:23:36.150Z,5.27
2018-08-20T17:25:38.305Z,4.17
2018-08-20T17:27:45.030Z,8.27
2018-08-20T17:29:52.531Z,4.50
2018-08-20T17:31:54.686Z,4.57
2018-08-20T17:33:57.007Z,6.50
2018-08-20T17:35:59.227Z,4.07
2018-08-20T17:38:03.578Z,4.77
2018-08-20T17:40:07.597Z,4.40
2018-08-20T17:42:09.734Z,6.67
2018-08-20T17:44:11.861Z,3.80
2018-08-20T17:46:14.301Z,7.80
2018-08-20T17:48:22.042Z,7.90
2018-08-20T17:50:31.913Z,6.03
2018-08-20T17:52:36.033Z,8.13
2018-08-20T17:54:38.278Z,4.40
2018-08-20T17:56:40.430Z,4.67
2018-08-20T17:58:42.655Z,7.83
2018-08-20T18:00:50.526Z,4.80
2018-08-20T18:03:00.312Z,4.50
2018-08-20T18:05:02.534Z,6.07
2018-08-20T18:07:04.665Z,7.00
2018-08-20T18:09:06.795Z,7.93
2018-08-20T18:11:08.986Z,5.03
2018-08-20T18:13:11.974Z,3.40
2018-08-20T18:15:14.750Z,6.83
2018-08-20T18:17:17.115Z,16.07
2018-08-20T18:19:19.296Z,9.57
2018-08-20T18:21:21.473Z,10.60
2018-08-20T18:23:24.141Z,9.43
2018-08-20T18:25:30.859Z,6.27
2018-08-20T18:27:37.813Z,12.80
2018-08-20T18:29:40.013Z,5.90
2018-08-20T18:31:42.170Z,5.43
2018-08-20T18:33:44.388Z,10.90
2018-08-20T18:35:46.534Z,7.57
2018-08-20T18:37:50.801Z,11.50
2018-08-20T18:39:57.505Z,7.47
2018-08-20T18:42:03.589Z,5.83
2018-08-20T18:44:05.885Z,5.77
2018-08-20T18:46:08.270Z,5.30
2018-08-20T18:48:10.463Z,4.50
2018-08-20T18:50:12.711Z,8.63
2018-08-20T18:52:15.173Z,6.70
2018-08-20T18:54:17.430Z,3.80
2018-08-20T18:56:19.578Z,6.80
2018-08-20T18:58:22.364Z,6.10
2018-08-20T19:00:24.636Z,7.80
2018-08-20T19:02:37.273Z,9.07
2018-08-20T19:04:44.253Z,8.70
2018-08-20T19:06:49.067Z,6.97
2018-08-20T19:08:51.247Z,5.80
2018-08-20T19:10:53.422Z,5.00
2018-08-20T19:12:55.573Z,5.60
2018-08-20T19:14:57.811Z,3.90
2018-08-20T19:16:59.956Z,6.60
2018-08-20T19:19:02.105Z,8.60
2018-08-20T19:21:08.463Z,5.80
2018-08-20T19:23:10.610Z,7.00
2018-08-20T19:25:12.807Z,5.00
2018-08-20T19:27:15.046Z,5.60
2018-08-20T19:29:24.886Z,8.33
2018-08-20T19:31:27.030Z,8.13
2018-08-20T19:33:30.087Z,6.80
2018-08-20T19:35:32.226Z,5.60
2018-08-20T19:37:34.334Z,4.80
2018-08-20T19:39:36.493Z,9.33
2018-08-20T19:41:38.637Z,9.70
2018-08-20T19:43:50.073Z,9.53
2018-08-20T19:45:52.208Z,5.67
2018-08-20T19:47:54.450Z,6.07
2018-08-20T19:49:56.590Z,6.10
2018-08-20T19:51:58.751Z,4.47
2018-08-20T19:54:00.955Z,5.40
2018-08-20T19:56:03.098Z,5.40
2018-08-20T19:58:05.315Z,5.20
2018-08-20T20:00:10.944Z,12.17
2018-08-20T20:02:13.112Z,5.70
2018-08-20T20:04:15.895Z,9.77
2018-08-20T20:06:18.113Z,9.83
2018-08-20T20:08:20.320Z,7.83
2018-08-20T20:10:22.493Z,6.33
2018-08-20T20:12:24.692Z,6.80
2018-08-20T20:14:29.674Z,3.40
2018-08-20T20:16:37.242Z,6.93
2018-08-20T20:18:39.380Z,5.10
2018-08-20T20:20:41.526Z,6.40
2018-08-20T20:22:43.659Z,9.03
2018-08-20T20:24:45.781Z,5.43
2018-08-20T20:26:47.959Z,6.87
2018-08-20T20:28:50.095Z,8.27
2018-08-20T20:30:52.221Z,8.17
2018-08-20T20:32:54.373Z,9.20
2018-08-20T20:34:56.972Z,4.27
2018-08-20T20:36:59.162Z,8.77
2018-08-20T20:39:01.370Z,4.37
2018-08-20T20:41:03.547Z,7.93
2018-08-20T20:43:05.743Z,11.13
2018-08-20T20:45:07.948Z,6.87
2018-08-20T20:47:10.094Z,5.00
2018-08-20T20:49:12.626Z,6.53
2018-08-20T20:51:14.765Z,5.87
2018-08-20T20:53:17.154Z,7.60
2018-08-20T20:55:19.402Z,4.70
2018-08-20T20:57:21.530Z,3.43
2018-08-20T20:59:23.688Z,7.90
2018-08-20T21:01:25.846Z,11.37
2018-08-20T21:03:28.022Z,10.93
2018-08-20T21:05:30.357Z,5.10
2018-08-20T21:07:33.308Z,5.97
2018-08-20T21:09:48.635Z,9.13
2018-08-20T21:11:51.946Z,9.63
2018-08-20T21:13:54.149Z,5.20
2018-08-20T21:16:05.402Z,6.13
2018-08-20T21:18:10.362Z,4.60
2018-08-20T21:20:14.929Z,8.03
2018-08-20T21:22:17.092Z,4.80
2018-08-20T21:24:19.292Z,6.27
2018-08-20T21:26:21.454Z,7.67
2018-08-20T21:28:27.634Z,5.73
2018-08-20T21:30:34.661Z,9.97
2018-08-20T21:32:36.799Z,4.80
2018-08-20T21:34:40.639Z,5.93
2018-08-20T21:36:42.802Z,6.20
2018-08-20T21:38:44.993Z,5.70
2018-08-20T21:40:47.391Z,4.83
2018-08-20T21:42:49.594Z,5.00
2018-08-20T21:44:51.836Z,8.20
2018-08-20T21:46:54.021Z,4.47
2018-08-20T21:48:56.244Z,5.00
2018-08-20T21:51:01.474Z,5.80
2018-08-20T21:53:03.623Z,4.20
2018-08-20T21:55:06.325Z,6.27
2018-08-20T21:57:08.526Z,10.00
2018-08-20T21:59:10.673Z,5.10
2018-08-20T22:01:14.212Z,11.20
2018-08-20T22:03:16.393Z,6.03
2018-08-20T22:05:18.546Z,6.03
2018-08-20T22:07:20.846Z,5.17
2018-08-20T22:09:23.103Z,7.70
2018-08-20T22:11:25.329Z,6.10
2018-08-20T22:13:27.532Z,8.10
2018-08-20T22:15:29.748Z,7.33
2018-08-20T22:17:31.955Z,4.53
2018-08-20T22:19:34.103Z,4.73
2018-08-20T22:21:36.437Z,4.57
2018-08-20T22:23:39.630Z,5.90
2018-08-20T22:25:43.358Z,4.30
2018-08-20T22:27:51.362Z,3.87
2018-08-20T22:29:53.562Z,6.13
2018-08-20T22:31:56.010Z,4.33
2018-08-20T22:34:05.109Z,9.90
2018-08-20T22:36:08.206Z,5.30
2018-08-20T22:38:10.367Z,10.90
2018-08-20T22:40:12.606Z,4.97
2018-08-20T22:42:14.801Z,4.10
2018-08-20T22:44:16.978Z,7.50
2018-08-20T22:46:20.130Z,9.50
2018-08-20T22:48:22.304Z,7.60
2018-08-20T22:50:24.488Z,4.60
2018-08-20T22:52:26.679Z,6.63
2018-08-20T22:54:28.845Z,5.97
2018-08-20T22:56:33.189Z,5.17
2018-08-20T22:58:35.412Z,7.87
2018-08-20T23:00:37.693Z,5.73
2018-08-20T23:02:39.827Z,5.30
2018-08-20T23:04:42.002Z,4.07
2018-08-20T23:06:44.541Z,4.97
2018-08-20T23:08:46.759Z,5.60
2018-08-20T23:10:48.938Z,7.90
2018-08-20T23:12:51.118Z,5.00
2018-08-20T23:14:54.070Z,5.50
2018-08-20T23:16:56.310Z,5.10
2018-08-20T23:18:58.515Z,3.47
2018-08-20T23:21:00.656Z,3.70
2018-08-20T23:23:02.811Z,6.63
2018-08-20T23:25:05.086Z,4.50
2018-08-20T23:27:07.301Z,6.17
2018-08-20T23:29:10.179Z,5.03
2018-08-20T23:31:13.070Z,3.90
2018-08-20T23:33:15.230Z,6.10
2018-08-20T23:35:17.439Z,5.23
2018-08-20T23:37:19.634Z,4.80
2018-08-20T23:39:21.835Z,5.90
2018-08-20T23:41:24.018Z,7.77
2018-08-20T23:43:26.442Z,3.23
2018-08-20T23:45:28.666Z,5.23
2018-08-20T23:47:30.813Z,4.63
2018-08-20T23:49:33.173Z,7.53
2018-08-20T23:51:35.489Z,5.10
2018-08-20T23:53:37.666Z,7.13
2018-08-20T23:55:39.890Z,4.90
2018-08-20T23:57:42.047Z,6.93
2018-08-20T23:59:44.245Z,6.43
